Terminal Aerodrome Forecast
Issued by NWS

Home | Current Version | Previous Version | Text Only | Print | Product List | Glossary On
Versions: 1 2 3 4 5 6 7 8 9 10 11 12 13 14 15 16 17
000
FTUS42 KFFC 241733
TAFFTY
TAF
KFTY 241733Z 2418/2518 24005KT P6SM VCSH BKN040
      TEMPO 2418/2422 4SM TSRA BKN030CB
     FM250000 25004KT P6SM SCT040 SCT150
     FM251200 31005KT P6SM VCSH SCT020 BKN200
     FM251500 33006KT P6SM VCSH BKN030 BKN100=

USA.gov is the U.S. government's official web portal to all federal, state and local government web resources and services.